sensor_id;sensor_type;location;lat;lon;timestamp;temperature;humidity
24436;DHT22;12616;52.470;13.436;2023-04-25T00:00:25;9.10;99.90
24436;DHT22;12616;52.470;13.436;2023-04-25T00:02:54;9.20;1.00
24436;DHT22;12616;52.470;13.436;2023-04-25T00:05:22;8.90;1.00
24436;DHT22;12616;52.470;13.436;2023-04-25T00:07:49;9.10;99.90
24436;DHT22;12616;52.470;13.436;2023-04-25T00:10:16;9.00;99.90
24436;DHT22;12616;52.470;13.436;2023-04-25T00:12:43;8.70;1.00
24436;DHT22;12616;52.470;13.436;2023-04-25T00:15:10;9.00;99.90
24436;DHT22;12616;52.470;13.436;2023-04-25T00:17:37;9.00;65.30
24436;DHT22;12616;52.470;13.436;2023-04-25T00:20:07;9.00;28.10
24436;DHT22;12616;52.470;13.436;2023-04-25T00:22:35;9.00;81.50
24436;DHT22;12616;52.470;13.436;2023-04-25T00:25:04;9.00;9.80
24436;DHT22;12616;52.470;13.436;2023-04-25T00:27:31;8.90;29.60
24436;DHT22;12616;52.470;13.436;2023-04-25T00:29:58;9.00;99.90
24436;DHT22;12616;52.470;13.436;2023-04-25T00:32:28;9.00;28.70
24436;DHT22;12616;52.470;13.436;2023-04-25T00:34:54;8.90;17.30
24436;DHT22;12616;52.470;13.436;2023-04-25T00:37:24;8.90;99.90
24436;DHT22;12616;52.470;13.436;2023-04-25T00:39:51;8.60;99.90
24436;DHT22;12616;52.470;13.436;2023-04-25T00:42:19;8.90;41.90
24436;DHT22;12616;52.470;13.436;2023-04-25T00:44:46;8.90;47.90
24436;DHT22;12616;52.470;13.436;2023-04-25T00:47:15;9.00;23.30
24436;DHT22;12616;52.470;13.436;2023-04-25T00:49:42;8.90;49.00
24436;DHT22;12616;52.470;13.436;2023-04-25T00:52:09;8.90;43.10
24436;DHT22;12616;52.470;13.436;2023-04-25T00:54:37;9.00;99.90
24436;DHT22;12616;52.470;13.436;2023-04-25T00:57:04;9.00;43.60
24436;DHT22;12616;52.470;13.436;2023-04-25T00:59:31;8.90;99.90
24436;DHT22;12616;52.470;13.436;2023-04-25T01:01:58;9.00;52.10
24436;DHT22;12616;52.470;13.436;2023-04-25T01:04:27;9.00;31.40
24436;DHT22;12616;52.470;13.436;2023-04-25T01:06:54;9.00;53.00
24436;DHT22;12616;52.470;13.436;2023-04-25T01:09:22;9.00;55.10
24436;DHT22;12616;52.470;13.436;2023-04-25T01:11:50;9.00;38.50
24436;DHT22;12616;52.470;13.436;2023-04-25T01:14:17;9.00;75.50
24436;DHT22;12616;52.470;13.436;2023-04-25T01:16:44;9.00;35.90
24436;DHT22;12616;52.470;13.436;2023-04-25T01:19:11;9.00;50.00
24436;DHT22;12616;52.470;13.436;2023-04-25T01:21:43;9.00;47.50
24436;DHT22;12616;52.470;13.436;2023-04-25T01:24:10;9.00;51.00
24436;DHT22;12616;52.470;13.436;2023-04-25T01:26:38;8.90;70.20
24436;DHT22;12616;52.470;13.436;2023-04-25T01:29:07;9.00;92.70
24436;DHT22;12616;52.470;13.436;2023-04-25T01:31:34;9.00;57.10
24436;DHT22;12616;52.470;13.436;2023-04-25T01:34:02;9.00;73.10
24436;DHT22;12616;52.470;13.436;2023-04-25T01:38:58;8.90;44.90
24436;DHT22;12616;52.470;13.436;2023-04-25T01:41:26;9.00;52.30
24436;DHT22;12616;52.470;13.436;2023-04-25T01:43:53;9.00;44.30
24436;DHT22;12616;52.470;13.436;2023-04-25T01:46:20;9.00;16.80
24436;DHT22;12616;52.470;13.436;2023-04-25T01:48:47;9.00;36.70
24436;DHT22;12616;52.470;13.436;2023-04-25T01:51:14;9.10;25.60
24436;DHT22;12616;52.470;13.436;2023-04-25T01:53:41;9.00;21.80
24436;DHT22;12616;52.470;13.436;2023-04-25T01:56:10;9.00;18.20
24436;DHT22;12616;52.470;13.436;2023-04-25T01:58:37;9.20;99.90
24436;DHT22;12616;52.470;13.436;2023-04-25T02:01:04;9.00;52.50
24436;DHT22;12616;52.470;13.436;2023-04-25T02:03:31;9.10;99.90
24436;DHT22;12616;52.470;13.436;2023-04-25T02:05:58;8.60;1.00
24436;DHT22;12616;52.470;13.436;2023-04-25T02:08:25;9.10;99.90
24436;DHT22;12616;52.470;13.436;2023-04-25T02:10:52;9.00;6.30
24436;DHT22;12616;52.470;13.436;2023-04-25T02:13:20;8.90;99.90
24436;DHT22;12616;52.470;13.436;2023-04-25T02:15:47;9.00;99.90
24436;DHT22;12616;52.470;13.436;2023-04-25T02:18:14;9.00;7.10
24436;DHT22;12616;52.470;13.436;2023-04-25T02:20:42;8.90;19.90
24436;DHT22;12616;52.470;13.436;2023-04-25T02:23:09;9.00;47.60
24436;DHT22;12616;52.470;13.436;2023-04-25T02:25:36;9.00;49.40
24436;DHT22;12616;52.470;13.436;2023-04-25T02:28:03;9.00;31.50
24436;DHT22;12616;52.470;13.436;2023-04-25T02:30:31;9.00;56.70
24436;DHT22;12616;52.470;13.436;2023-04-25T02:32:58;8.90;33.80
24436;DHT22;12616;52.470;13.436;2023-04-25T02:35:25;8.90;80.50
24436;DHT22;12616;52.470;13.436;2023-04-25T02:37:52;8.90;72.90
24436;DHT22;12616;52.470;13.436;2023-04-25T02:40:19;8.90;71.60
24436;DHT22;12616;52.470;13.436;2023-04-25T02:42:46;8.90;99.90
24436;DHT22;12616;52.470;13.436;2023-04-25T02:45:12;8.90;99.90
24436;DHT22;12616;52.470;13.436;2023-04-25T02:47:41;8.90;99.90
24436;DHT22;12616;52.470;13.436;2023-04-25T02:50:08;8.80;99.90
24436;DHT22;12616;52.470;13.436;2023-04-25T02:52:34;8.80;99.90
24436;DHT22;12616;52.470;13.436;2023-04-25T02:55:02;8.90;99.90
24436;DHT22;12616;52.470;13.436;2023-04-25T02:57:28;8.90;99.90
24436;DHT22;12616;52.470;13.436;2023-04-25T02:59:55;8.90;99.90
24436;DHT22;12616;52.470;13.436;2023-04-25T03:02:22;8.80;75.80
24436;DHT22;12616;52.470;13.436;2023-04-25T03:04:50;8.80;93.50
24436;DHT22;12616;52.470;13.436;2023-04-25T03:07:17;8.80;91.80
24436;DHT22;12616;52.470;13.436;2023-04-25T03:09:44;8.80;99.90
24436;DHT22;12616;52.470;13.436;2023-04-25T03:12:10;8.80;99.90
24436;DHT22;12616;52.470;13.436;2023-04-25T03:14:37;8.70;99.90
24436;DHT22;12616;52.470;13.436;2023-04-25T03:17:04;8.80;99.90
24436;DHT22;12616;52.470;13.436;2023-04-25T03:19:31;8.70;99.90
24436;DHT22;12616;52.470;13.436;2023-04-25T03:21:59;8.70;99.90
24436;DHT22;12616;52.470;13.436;2023-04-25T03:24:26;8.80;99.90
24436;DHT22;12616;52.470;13.436;2023-04-25T03:26:53;8.80;99.90
24436;DHT22;12616;52.470;13.436;2023-04-25T03:29:20;8.70;99.90
24436;DHT22;12616;52.470;13.436;2023-04-25T03:31:49;8.70;99.90
24436;DHT22;12616;52.470;13.436;2023-04-25T03:34:16;8.70;99.90
24436;DHT22;12616;52.470;13.436;2023-04-25T03:36:43;8.70;99.90
24436;DHT22;12616;52.470;13.436;2023-04-25T03:39:11;8.80;99.90
24436;DHT22;12616;52.470;13.436;2023-04-25T03:41:38;8.80;99.90
24436;DHT22;12616;52.470;13.436;2023-04-25T03:44:05;9.00;1.00
24436;DHT22;12616;52.470;13.436;2023-04-25T03:46:32;8.90;99.90
24436;DHT22;12616;52.470;13.436;2023-04-25T03:48:59;8.80;99.90
24436;DHT22;12616;52.470;13.436;2023-04-25T03:51:25;8.80;99.90
24436;DHT22;12616;52.470;13.436;2023-04-25T03:53:52;8.80;99.90
24436;DHT22;12616;52.470;13.436;2023-04-25T03:56:20;8.80;99.90
24436;DHT22;12616;52.470;13.436;2023-04-25T03:58:47;8.70;99.90
24436;DHT22;12616;52.470;13.436;2023-04-25T04:01:14;8.70;99.90
24436;DHT22;12616;52.470;13.436;2023-04-25T04:03:41;8.80;99.90
24436;DHT22;12616;52.470;13.436;2023-04-25T04:06:08;8.70;99.90
24436;DHT22;12616;52.470;13.436;2023-04-25T04:08:36;8.70;99.90
24436;DHT22;12616;52.470;13.436;2023-04-25T04:11:03;8.70;99.90
24436;DHT22;12616;52.470;13.436;2023-04-25T04:13:31;8.60;99.90
24436;DHT22;12616;52.470;13.436;2023-04-25T04:15:58;8.60;99.90
24436;DHT22;12616;52.470;13.436;2023-04-25T04:18:25;8.70;99.90
24436;DHT22;12616;52.470;13.436;2023-04-25T04:20:51;8.70;99.90
24436;DHT22;12616;52.470;13.436;2023-04-25T04:23:19;8.70;99.90
24436;DHT22;12616;52.470;13.436;2023-04-25T04:25:46;8.70;99.90
24436;DHT22;12616;52.470;13.436;2023-04-25T04:28:13;8.60;99.90
24436;DHT22;12616;52.470;13.436;2023-04-25T04:30:42;8.70;99.90
24436;DHT22;12616;52.470;13.436;2023-04-25T04:33:12;8.80;99.90
24436;DHT22;12616;52.470;13.436;2023-04-25T04:35:40;8.80;99.90
24436;DHT22;12616;52.470;13.436;2023-04-25T04:38:08;8.70;99.90
24436;DHT22;12616;52.470;13.436;2023-04-25T04:40:36;8.70;99.90
24436;DHT22;12616;52.470;13.436;2023-04-25T04:43:03;8.70;99.90
24436;DHT22;12616;52.470;13.436;2023-04-25T04:45:30;8.70;99.90
24436;DHT22;12616;52.470;13.436;2023-04-25T04:47:58;8.70;99.90
24436;DHT22;12616;52.470;13.436;2023-04-25T04:50:25;8.70;99.90
24436;DHT22;12616;52.470;13.436;2023-04-25T04:52:52;8.50;1.00
24436;DHT22;12616;52.470;13.436;2023-04-25T04:55:20;8.90;99.90
24436;DHT22;12616;52.470;13.436;2023-04-25T04:57:47;8.90;99.90
24436;DHT22;12616;52.470;13.436;2023-04-25T05:00:15;8.90;99.90
24436;DHT22;12616;52.470;13.436;2023-04-25T05:02:42;9.30;1.00
24436;DHT22;12616;52.470;13.436;2023-04-25T05:05:10;8.80;1.00
24436;DHT22;12616;52.470;13.436;2023-04-25T05:07:37;9.00;99.90
24436;DHT22;12616;52.470;13.436;2023-04-25T05:10:05;9.00;1.00
24436;DHT22;12616;52.470;13.436;2023-04-25T05:12:32;9.10;99.90
24436;DHT22;12616;52.470;13.436;2023-04-25T05:14:59;9.00;99.90
24436;DHT22;12616;52.470;13.436;2023-04-25T05:17:26;8.90;99.90
24436;DHT22;12616;52.470;13.436;2023-04-25T05:19:52;8.50;1.00
24436;DHT22;12616;52.470;13.436;2023-04-25T05:22:21;8.90;99.90
24436;DHT22;12616;52.470;13.436;2023-04-25T05:24:47;8.80;99.90
24436;DHT22;12616;52.470;13.436;2023-04-25T05:27:16;8.80;99.90
24436;DHT22;12616;52.470;13.436;2023-04-25T05:29:43;8.80;99.90
24436;DHT22;12616;52.470;13.436;2023-04-25T05:32:10;8.80;99.90
24436;DHT22;12616;52.470;13.436;2023-04-25T05:34:37;8.80;99.90
24436;DHT22;12616;52.470;13.436;2023-04-25T05:37:05;8.90;99.90
24436;DHT22;12616;52.470;13.436;2023-04-25T05:39:34;8.90;99.90
24436;DHT22;12616;52.470;13.436;2023-04-25T05:42:01;8.90;99.90
24436;DHT22;12616;52.470;13.436;2023-04-25T05:44:29;8.90;99.90
24436;DHT22;12616;52.470;13.436;2023-04-25T05:46:56;9.10;1.00
24436;DHT22;12616;52.470;13.436;2023-04-25T05:49:23;9.30;99.90
24436;DHT22;12616;52.470;13.436;2023-04-25T05:51:50;9.10;99.90
24436;DHT22;12616;52.470;13.436;2023-04-25T05:54:17;9.20;99.90
24436;DHT22;12616;52.470;13.436;2023-04-25T05:56:45;9.10;99.90
24436;DHT22;12616;52.470;13.436;2023-04-25T05:59:12;9.20;99.90
24436;DHT22;12616;52.470;13.436;2023-04-25T06:01:39;9.20;99.90
24436;DHT22;12616;52.470;13.436;2023-04-25T06:04:05;9.10;99.90
24436;DHT22;12616;52.470;13.436;2023-04-25T06:06:32;9.10;99.90
24436;DHT22;12616;52.470;13.436;2023-04-25T06:08:59;9.00;99.90
24436;DHT22;12616;52.470;13.436;2023-04-25T06:11:26;9.10;99.90
24436;DHT22;12616;52.470;13.436;2023-04-25T06:13:54;9.00;99.90
24436;DHT22;12616;52.470;13.436;2023-04-25T06:16:21;9.30;1.00
24436;DHT22;12616;52.470;13.436;2023-04-25T06:18:48;9.10;99.90
24436;DHT22;12616;52.470;13.436;2023-04-25T06:21:15;9.20;99.90
24436;DHT22;12616;52.470;13.436;2023-04-25T06:23:41;9.40;1.00
24436;DHT22;12616;52.470;13.436;2023-04-25T06:26:08;9.30;99.90
24436;DHT22;12616;52.470;13.436;2023-04-25T06:28:35;9.30;99.90
24436;DHT22;12616;52.470;13.436;2023-04-25T06:31:03;9.40;99.90
24436;DHT22;12616;52.470;13.436;2023-04-25T06:33:30;9.30;99.90
24436;DHT22;12616;52.470;13.436;2023-04-25T06:35:57;9.10;1.00
24436;DHT22;12616;52.470;13.436;2023-04-25T06:38:24;9.20;99.90
24436;DHT22;12616;52.470;13.436;2023-04-25T06:40:51;9.20;99.90
24436;DHT22;12616;52.470;13.436;2023-04-25T06:43:17;9.40;99.90
24436;DHT22;12616;52.470;13.436;2023-04-25T06:45:44;9.30;99.90
24436;DHT22;12616;52.470;13.436;2023-04-25T06:48:13;9.60;88.90
24436;DHT22;12616;52.470;13.436;2023-04-25T06:50:41;9.40;99.90
24436;DHT22;12616;52.470;13.436;2023-04-25T06:53:07;9.40;99.90
24436;DHT22;12616;52.470;13.436;2023-04-25T06:55:38;9.40;99.90
24436;DHT22;12616;52.470;13.436;2023-04-25T06:58:05;9.50;99.90
24436;DHT22;12616;52.470;13.436;2023-04-25T07:00:32;9.50;1.00
24436;DHT22;12616;52.470;13.436;2023-04-25T07:02:59;9.60;99.90
24436;DHT22;12616;52.470;13.436;2023-04-25T07:05:27;9.50;99.90
24436;DHT22;12616;52.470;13.436;2023-04-25T07:07:54;9.50;99.90
24436;DHT22;12616;52.470;13.436;2023-04-25T07:10:21;9.60;1.00
24436;DHT22;12616;52.470;13.436;2023-04-25T07:12:48;9.20;99.90
24436;DHT22;12616;52.470;13.436;2023-04-25T07:15:15;9.50;1.00
24436;DHT22;12616;52.470;13.436;2023-04-25T07:17:42;9.50;1.00
24436;DHT22;12616;52.470;13.436;2023-04-25T07:20:09;9.30;99.90
24436;DHT22;12616;52.470;13.436;2023-04-25T07:22:41;9.20;1.00
24436;DHT22;12616;52.470;13.436;2023-04-25T07:25:08;9.10;1.00
24436;DHT22;12616;52.470;13.436;2023-04-25T07:27:36;8.90;99.90
24436;DHT22;12616;52.470;13.436;2023-04-25T07:30:03;8.90;99.90
24436;DHT22;12616;52.470;13.436;2023-04-25T07:32:30;8.90;99.90
24436;DHT22;12616;52.470;13.436;2023-04-25T07:34:57;9.10;99.90
24436;DHT22;12616;52.470;13.436;2023-04-25T07:37:24;9.00;1.00
24436;DHT22;12616;52.470;13.436;2023-04-25T07:39:52;9.00;76.60
24436;DHT22;12616;52.470;13.436;2023-04-25T07:42:19;8.80;1.00
24436;DHT22;12616;52.470;13.436;2023-04-25T07:44:46;8.80;1.00
24436;DHT22;12616;52.470;13.436;2023-04-25T07:47:13;8.90;99.90
24436;DHT22;12616;52.470;13.436;2023-04-25T07:49:40;8.90;99.90
24436;DHT22;12616;52.470;13.436;2023-04-25T07:52:07;9.10;1.00
24436;DHT22;12616;52.470;13.436;2023-04-25T07:54:34;9.20;99.90
24436;DHT22;12616;52.470;13.436;2023-04-25T07:57:02;9.20;1.00
24436;DHT22;12616;52.470;13.436;2023-04-25T07:59:29;9.30;99.90
24436;DHT22;12616;52.470;13.436;2023-04-25T08:01:56;9.50;99.90
24436;DHT22;12616;52.470;13.436;2023-04-25T08:04:23;9.50;1.00
24436;DHT22;12616;52.470;13.436;2023-04-25T08:06:51;9.50;1.00
24436;DHT22;12616;52.470;13.436;2023-04-25T08:09:18;9.60;99.90
24436;DHT22;12616;52.470;13.436;2023-04-25T08:11:45;9.60;99.90
24436;DHT22;12616;52.470;13.436;2023-04-25T08:14:13;9.30;1.00
24436;DHT22;12616;52.470;13.436;2023-04-25T08:16:40;9.00;1.00
24436;DHT22;12616;52.470;13.436;2023-04-25T08:19:07;8.80;1.00
24436;DHT22;12616;52.470;13.436;2023-04-25T08:21:34;9.00;1.00
24436;DHT22;12616;52.470;13.436;2023-04-25T08:24:01;9.10;1.00
24436;DHT22;12616;52.470;13.436;2023-04-25T08:26:28;9.00;1.00
24436;DHT22;12616;52.470;13.436;2023-04-25T08:28:55;8.90;1.00
24436;DHT22;12616;52.470;13.436;2023-04-25T08:31:23;9.20;1.00
24436;DHT22;12616;52.470;13.436;2023-04-25T08:36:17;9.60;1.00
24436;DHT22;12616;52.470;13.436;2023-04-25T08:38:44;9.80;1.00
24436;DHT22;12616;52.470;13.436;2023-04-25T08:41:12;10.00;1.00
24436;DHT22;12616;52.470;13.436;2023-04-25T08:43:42;10.10;1.00
24436;DHT22;12616;52.470;13.436;2023-04-25T08:46:10;10.00;1.00
24436;DHT22;12616;52.470;13.436;2023-04-25T08:48:40;10.10;1.00
24436;DHT22;12616;52.470;13.436;2023-04-25T08:51:10;10.20;1.00
24436;DHT22;12616;52.470;13.436;2023-04-25T08:53:40;10.20;1.00
24436;DHT22;12616;52.470;13.436;2023-04-25T08:56:09;10.40;1.00
24436;DHT22;12616;52.470;13.436;2023-04-25T08:58:38;10.20;1.00
24436;DHT22;12616;52.470;13.436;2023-04-25T09:01:06;10.30;1.00
24436;DHT22;12616;52.470;13.436;2023-04-25T09:03:33;9.70;99.90
24436;DHT22;12616;52.470;13.436;2023-04-25T09:06:01;9.70;99.90
24436;DHT22;12616;52.470;13.436;2023-04-25T09:08:28;9.80;99.90
24436;DHT22;12616;52.470;13.436;2023-04-25T09:10:55;9.90;99.90
24436;DHT22;12616;52.470;13.436;2023-04-25T09:13:25;10.10;99.90
24436;DHT22;12616;52.470;13.436;2023-04-25T09:15:54;9.80;99.90
24436;DHT22;12616;52.470;13.436;2023-04-25T09:18:24;9.60;99.90
24436;DHT22;12616;52.470;13.436;2023-04-25T09:20:52;10.00;99.90
24436;DHT22;12616;52.470;13.436;2023-04-25T09:23:22;10.40;99.90
24436;DHT22;12616;52.470;13.436;2023-04-25T09:25:51;10.50;99.90
24436;DHT22;12616;52.470;13.436;2023-04-25T09:28:23;10.80;99.90
24436;DHT22;12616;52.470;13.436;2023-04-25T09:30:55;10.60;99.90
24436;DHT22;12616;52.470;13.436;2023-04-25T09:33:28;10.70;99.90
24436;DHT22;12616;52.470;13.436;2023-04-25T09:36:02;10.50;99.90
24436;DHT22;12616;52.470;13.436;2023-04-25T09:38:32;10.70;99.90
24436;DHT22;12616;52.470;13.436;2023-04-25T09:40:59;10.90;99.90
24436;DHT22;12616;52.470;13.436;2023-04-25T09:43:27;10.70;99.90
24436;DHT22;12616;52.470;13.436;2023-04-25T09:45:54;10.80;99.90
24436;DHT22;12616;52.470;13.436;2023-04-25T09:48:26;10.90;99.90
24436;DHT22;12616;52.470;13.436;2023-04-25T09:51:07;11.00;99.90
24436;DHT22;12616;52.470;13.436;2023-04-25T09:53:36;11.00;99.90
24436;DHT22;12616;52.470;13.436;2023-04-25T09:56:04;11.10;99.90
24436;DHT22;12616;52.470;13.436;2023-04-25T09:58:33;11.20;99.90
24436;DHT22;12616;52.470;13.436;2023-04-25T10:01:01;11.40;99.90
24436;DHT22;12616;52.470;13.436;2023-04-25T10:03:30;11.40;99.90
24436;DHT22;12616;52.470;13.436;2023-04-25T10:05:59;11.50;99.90
24436;DHT22;12616;52.470;13.436;2023-04-25T10:08:31;11.50;99.90
24436;DHT22;12616;52.470;13.436;2023-04-25T10:11:01;11.30;99.90
24436;DHT22;12616;52.470;13.436;2023-04-25T10:13:29;11.50;1.00
24436;DHT22;12616;52.470;13.436;2023-04-25T10:15:58;11.30;99.90
24436;DHT22;12616;52.470;13.436;2023-04-25T10:18:25;11.30;99.90
24436;DHT22;12616;52.470;13.436;2023-04-25T10:20:54;11.50;99.90
24436;DHT22;12616;52.470;13.436;2023-04-25T10:23:21;11.20;99.90
24436;DHT22;12616;52.470;13.436;2023-04-25T10:25:49;11.50;99.90
24436;DHT22;12616;52.470;13.436;2023-04-25T10:28:18;11.60;99.90
24436;DHT22;12616;52.470;13.436;2023-04-25T10:30:58;11.70;99.90
24436;DHT22;12616;52.470;13.436;2023-04-25T10:33:33;11.50;1.00
24436;DHT22;12616;52.470;13.436;2023-04-25T10:36:09;11.30;99.90
24436;DHT22;12616;52.470;13.436;2023-04-25T10:38:36;11.20;99.90
24436;DHT22;12616;52.470;13.436;2023-04-25T10:41:04;11.50;1.00
24436;DHT22;12616;52.470;13.436;2023-04-25T10:43:37;11.20;99.90
24436;DHT22;12616;52.470;13.436;2023-04-25T10:46:14;11.40;99.90
24436;DHT22;12616;52.470;13.436;2023-04-25T10:48:45;11.40;99.90
24436;DHT22;12616;52.470;13.436;2023-04-25T10:51:17;11.30;99.90
24436;DHT22;12616;52.470;13.436;2023-04-25T10:53:44;11.20;1.00
24436;DHT22;12616;52.470;13.436;2023-04-25T10:56:12;10.90;99.90
24436;DHT22;12616;52.470;13.436;2023-04-25T10:58:45;10.90;1.00
24436;DHT22;12616;52.470;13.436;2023-04-25T11:01:13;10.80;1.00
24436;DHT22;12616;52.470;13.436;2023-04-25T11:03:41;11.30;1.00
24436;DHT22;12616;52.470;13.436;2023-04-25T11:06:20;11.00;99.90
24436;DHT22;12616;52.470;13.436;2023-04-25T11:08:50;11.70;1.00
24436;DHT22;12616;52.470;13.436;2023-04-25T11:11:18;11.50;99.90
24436;DHT22;12616;52.470;13.436;2023-04-25T11:13:48;11.90;99.90
24436;DHT22;12616;52.470;13.436;2023-04-25T11:16:16;11.80;99.90
24436;DHT22;12616;52.470;13.436;2023-04-25T11:18:43;11.60;99.90
24436;DHT22;12616;52.470;13.436;2023-04-25T11:21:10;11.50;99.90
24436;DHT22;12616;52.470;13.436;2023-04-25T11:23:37;11.40;99.90
24436;DHT22;12616;52.470;13.436;2023-04-25T11:26:04;11.20;99.90
24436;DHT22;12616;52.470;13.436;2023-04-25T11:28:31;10.90;1.00
24436;DHT22;12616;52.470;13.436;2023-04-25T11:30:59;10.80;99.90
24436;DHT22;12616;52.470;13.436;2023-04-25T11:35:54;10.70;99.90
24436;DHT22;12616;52.470;13.436;2023-04-25T11:38:22;10.50;99.90
24436;DHT22;12616;52.470;13.436;2023-04-25T11:40:52;10.10;99.90
24436;DHT22;12616;52.470;13.436;2023-04-25T11:43:20;10.30;99.90
24436;DHT22;12616;52.470;13.436;2023-04-25T11:45:48;10.20;99.90
24436;DHT22;12616;52.470;13.436;2023-04-25T11:48:17;10.70;1.00
24436;DHT22;12616;52.470;13.436;2023-04-25T11:50:45;10.20;99.90
24436;DHT22;12616;52.470;13.436;2023-04-25T11:53:12;10.10;99.90
24436;DHT22;12616;52.470;13.436;2023-04-25T11:55:39;10.20;99.90
24436;DHT22;12616;52.470;13.436;2023-04-25T11:58:06;10.30;99.90
24436;DHT22;12616;52.470;13.436;2023-04-25T12:00:34;10.50;1.00
24436;DHT22;12616;52.470;13.436;2023-04-25T12:03:01;10.80;99.90
24436;DHT22;12616;52.470;13.436;2023-04-25T12:05:30;11.10;99.90
24436;DHT22;12616;52.470;13.436;2023-04-25T12:08:09;11.10;99.90
24436;DHT22;12616;52.470;13.436;2023-04-25T12:10:37;11.20;1.00
24436;DHT22;12616;52.470;13.436;2023-04-25T12:15:45;10.70;99.90
24436;DHT22;12616;52.470;13.436;2023-04-25T12:18:11;10.90;1.00
24436;DHT22;12616;52.470;13.436;2023-04-25T12:20:41;10.90;99.90
24436;DHT22;12616;52.470;13.436;2023-04-25T12:23:08;11.10;1.00
24436;DHT22;12616;52.470;13.436;2023-04-25T12:25:37;11.10;99.90
24436;DHT22;12616;52.470;13.436;2023-04-25T12:28:15;11.10;99.90
24436;DHT22;12616;52.470;13.436;2023-04-25T12:30:58;11.10;99.90
24436;DHT22;12616;52.470;13.436;2023-04-25T12:33:27;11.20;99.90
24436;DHT22;12616;52.470;13.436;2023-04-25T12:35:56;11.00;1.00
24436;DHT22;12616;52.470;13.436;2023-04-25T12:38:27;11.30;99.90
24436;DHT22;12616;52.470;13.436;2023-04-25T12:40:56;11.60;99.90
24436;DHT22;12616;52.470;13.436;2023-04-25T12:43:23;11.60;99.90
24436;DHT22;12616;52.470;13.436;2023-04-25T12:45:51;11.70;99.90
24436;DHT22;12616;52.470;13.436;2023-04-25T12:48:19;11.70;99.90
24436;DHT22;12616;52.470;13.436;2023-04-25T12:50:46;11.80;99.90
24436;DHT22;12616;52.470;13.436;2023-04-25T12:53:15;11.60;99.90
24436;DHT22;12616;52.470;13.436;2023-04-25T12:55:42;11.60;99.90
24436;DHT22;12616;52.470;13.436;2023-04-25T12:58:11;10.90;1.00
24436;DHT22;12616;52.470;13.436;2023-04-25T13:00:38;10.70;99.90
24436;DHT22;12616;52.470;13.436;2023-04-25T13:03:05;10.60;99.90
24436;DHT22;12616;52.470;13.436;2023-04-25T13:05:32;10.90;99.90
24436;DHT22;12616;52.470;13.436;2023-04-25T13:07:59;11.10;99.90
24436;DHT22;12616;52.470;13.436;2023-04-25T13:10:28;11.10;99.90
24436;DHT22;12616;52.470;13.436;2023-04-25T13:12:55;11.50;1.00
24436;DHT22;12616;52.470;13.436;2023-04-25T13:15:22;11.60;99.90
24436;DHT22;12616;52.470;13.436;2023-04-25T13:17:49;11.50;99.90
24436;DHT22;12616;52.470;13.436;2023-04-25T13:20:16;11.00;99.90
24436;DHT22;12616;52.470;13.436;2023-04-25T13:22:44;11.30;1.00
24436;DHT22;12616;52.470;13.436;2023-04-25T13:25:11;11.40;99.90
24436;DHT22;12616;52.470;13.436;2023-04-25T13:27:40;11.40;99.90
24436;DHT22;12616;52.470;13.436;2023-04-25T13:30:07;11.50;99.90
24436;DHT22;12616;52.470;13.436;2023-04-25T13:32:34;11.30;99.90
24436;DHT22;12616;52.470;13.436;2023-04-25T13:35:03;11.30;99.90
24436;DHT22;12616;52.470;13.436;2023-04-25T13:37:30;11.50;99.90
24436;DHT22;12616;52.470;13.436;2023-04-25T13:39:59;11.40;99.90
24436;DHT22;12616;52.470;13.436;2023-04-25T13:42:25;11.00;99.90
24436;DHT22;12616;52.470;13.436;2023-04-25T13:44:54;11.20;99.90
24436;DHT22;12616;52.470;13.436;2023-04-25T13:47:20;11.30;99.90
24436;DHT22;12616;52.470;13.436;2023-04-25T13:49:56;11.70;1.00
24436;DHT22;12616;52.470;13.436;2023-04-25T13:52:33;11.40;1.00
24436;DHT22;12616;52.470;13.436;2023-04-25T13:55:00;11.20;99.90
24436;DHT22;12616;52.470;13.436;2023-04-25T13:57:29;11.40;99.90
24436;DHT22;12616;52.470;13.436;2023-04-25T13:59:58;11.40;99.90
24436;DHT22;12616;52.470;13.436;2023-04-25T14:02:30;11.50;1.00
24436;DHT22;12616;52.470;13.436;2023-04-25T14:04:57;11.60;99.90
24436;DHT22;12616;52.470;13.436;2023-04-25T14:07:23;11.70;99.90
24436;DHT22;12616;52.470;13.436;2023-04-25T14:09:51;11.60;99.90
24436;DHT22;12616;52.470;13.436;2023-04-25T14:12:18;11.50;99.90
24436;DHT22;12616;52.470;13.436;2023-04-25T14:14:45;10.70;99.90
24436;DHT22;12616;52.470;13.436;2023-04-25T14:17:13;10.60;99.90
24436;DHT22;12616;52.470;13.436;2023-04-25T14:19:40;10.80;99.90
24436;DHT22;12616;52.470;13.436;2023-04-25T14:22:08;10.80;99.90
24436;DHT22;12616;52.470;13.436;2023-04-25T14:24:35;10.80;1.00
24436;DHT22;12616;52.470;13.436;2023-04-25T14:27:03;10.80;99.90
24436;DHT22;12616;52.470;13.436;2023-04-25T14:29:30;10.70;99.90
24436;DHT22;12616;52.470;13.436;2023-04-25T14:31:57;10.70;99.90
24436;DHT22;12616;52.470;13.436;2023-04-25T14:34:26;10.60;99.90
24436;DHT22;12616;52.470;13.436;2023-04-25T14:36:52;10.50;99.90
24436;DHT22;12616;52.470;13.436;2023-04-25T14:41:46;10.40;99.90
24436;DHT22;12616;52.470;13.436;2023-04-25T14:44:13;10.50;99.90
24436;DHT22;12616;52.470;13.436;2023-04-25T14:46:40;10.70;99.90
24436;DHT22;12616;52.470;13.436;2023-04-25T14:49:08;10.70;99.90
24436;DHT22;12616;52.470;13.436;2023-04-25T14:51:36;10.70;99.90
24436;DHT22;12616;52.470;13.436;2023-04-25T14:54:04;10.90;99.90
24436;DHT22;12616;52.470;13.436;2023-04-25T14:56:31;10.70;99.90
24436;DHT22;12616;52.470;13.436;2023-04-25T14:58:58;10.80;99.90
24436;DHT22;12616;52.470;13.436;2023-04-25T15:01:25;10.80;99.90
24436;DHT22;12616;52.470;13.436;2023-04-25T15:03:52;10.70;99.90
24436;DHT22;12616;52.470;13.436;2023-04-25T15:06:19;10.80;99.90
24436;DHT22;12616;52.470;13.436;2023-04-25T15:08:47;10.60;99.90
24436;DHT22;12616;52.470;13.436;2023-04-25T15:11:14;10.60;99.90
24436;DHT22;12616;52.470;13.436;2023-04-25T15:13:41;10.50;99.90
24436;DHT22;12616;52.470;13.436;2023-04-25T15:16:08;10.30;99.90
24436;DHT22;12616;52.470;13.436;2023-04-25T15:18:35;10.30;99.90
24436;DHT22;12616;52.470;13.436;2023-04-25T15:21:02;10.00;99.90
24436;DHT22;12616;52.470;13.436;2023-04-25T15:23:29;10.10;99.90
24436;DHT22;12616;52.470;13.436;2023-04-25T15:25:58;10.70;1.00
24436;DHT22;12616;52.470;13.436;2023-04-25T15:28:24;10.30;99.90
24436;DHT22;12616;52.470;13.436;2023-04-25T15:30:51;10.40;99.90
24436;DHT22;12616;52.470;13.436;2023-04-25T15:33:18;10.50;99.90
24436;DHT22;12616;52.470;13.436;2023-04-25T15:35:45;10.50;99.90
24436;DHT22;12616;52.470;13.436;2023-04-25T15:38:12;10.70;99.90
24436;DHT22;12616;52.470;13.436;2023-04-25T15:40:39;11.00;99.90
24436;DHT22;12616;52.470;13.436;2023-04-25T15:43:07;11.20;99.90